Time;durP1;ratioP1;P1;durP2;ratioP2;P2;SDS_P1;SDS_P2;PMS_P1;PMS_P2;Temp;Humidity;BMP_temperature;BMP_pressure;BME280_temperature;BME280_humidity;BME280_pressure;Samples;Min_cycle;Max_cycle;Signal;HPM_P1;HPM_P2
2022/05/07 00:01:36;;;;;;;6.13;3.90;;;;;;;;;;4942104;28;20616;-79
2022/05/07 00:04:03;;;;;;;6.47;3.50;;;;;;;;;;4941761;28;21479;-79
2022/05/07 00:06:31;;;;;;;7.63;3.40;;;;;;;;;;4945832;28;20219;-79
2022/05/07 00:08:58;;;;;;;5.83;3.30;;;;;;;;;;4944495;28;20238;-79
2022/05/07 00:11:25;;;;;;;8.33;3.17;;;;;;;;;;4943990;28;20305;-79
2022/05/07 00:13:53;;;;;;;7.13;3.10;;;;;;;;;;4943566;28;20304;-79
2022/05/07 00:19:05;;;;;;;7.50;3.30;;;;;;;;;;4944030;28;20311;-79
2022/05/07 00:21:33;;;;;;;6.03;2.60;;;;;;;;;;4945120;28;20250;-79
2022/05/07 00:24:02;;;;;;;9.83;2.60;;;;;;;;;;4942485;28;20649;-79
2022/05/07 00:26:29;;;;;;;6.83;3.33;;;;;;;;;;4943514;28;20240;-79
2022/05/07 00:28:58;;;;;;;3.90;2.63;;;;;;;;;;4938597;28;20215;-78
2022/05/07 00:31:25;;;;;;;8.47;2.90;;;;;;;;;;4941367;28;20226;-79
2022/05/07 00:33:52;;;;;;;6.73;3.30;;;;;;;;;;4942093;28;20217;-78
2022/05/07 00:36:19;;;;;;;5.37;3.03;;;;;;;;;;4942096;28;20222;-78
2022/05/07 00:38:46;;;;;;;7.77;3.03;;;;;;;;;;4941718;28;20234;-77
2022/05/07 00:41:14;;;;;;;7.23;3.00;;;;;;;;;;4939800;28;20230;-78
2022/05/07 00:43:41;;;;;;;9.77;3.40;;;;;;;;;;4942976;28;20266;-79
2022/05/07 00:46:10;;;;;;;5.93;3.30;;;;;;;;;;4940159;28;20211;-79
2022/05/07 00:48:37;;;;;;;6.77;3.67;;;;;;;;;;4939828;28;20208;-79
2022/05/07 00:53:50;;;;;;;5.43;3.07;;;;;;;;;;4943942;28;20733;-78
2022/05/07 00:56:18;;;;;;;8.47;3.27;;;;;;;;;;4945952;28;20310;-79
2022/05/07 00:58:45;;;;;;;5.17;3.40;;;;;;;;;;4944566;28;20218;-79
2022/05/07 01:01:13;;;;;;;3.97;2.90;;;;;;;;;;4947159;28;20202;-78
2022/05/07 01:03:40;;;;;;;5.93;2.90;;;;;;;;;;4944494;28;20199;-79
2022/05/07 01:06:09;;;;;;;5.93;3.10;;;;;;;;;;4945444;28;20293;-78
2022/05/07 01:08:37;;;;;;;7.60;3.33;;;;;;;;;;4944029;28;20205;-78
2022/05/07 01:11:04;;;;;;;7.27;3.00;;;;;;;;;;4945022;28;20294;-77
2022/05/07 01:13:32;;;;;;;7.27;3.60;;;;;;;;;;4947068;28;20206;-78
2022/05/07 01:16:00;;;;;;;5.43;3.20;;;;;;;;;;4945332;28;20224;-78
2022/05/07 01:18:28;;;;;;;4.67;3.10;;;;;;;;;;4945154;28;20227;-78
2022/05/07 01:20:57;;;;;;;6.00;2.97;;;;;;;;;;4943206;28;20231;-78
2022/05/07 01:23:26;;;;;;;8.47;3.60;;;;;;;;;;4945946;28;20265;-78
2022/05/07 01:25:58;;;;;;;8.30;3.30;;;;;;;;;;4943623;28;20211;-78
2022/05/07 01:28:25;;;;;;;6.40;2.90;;;;;;;;;;4944624;28;20203;-78
2022/05/07 01:30:52;;;;;;;6.10;2.90;;;;;;;;;;4944422;28;20242;-78
2022/05/07 01:33:19;;;;;;;5.83;3.10;;;;;;;;;;4943836;28;20258;-78
2022/05/07 01:35:46;;;;;;;8.40;3.20;;;;;;;;;;4945928;28;20213;-78
2022/05/07 01:38:14;;;;;;;7.07;3.50;;;;;;;;;;4942549;28;20318;-79
2022/05/07 01:40:42;;;;;;;7.97;3.53;;;;;;;;;;4944685;28;20332;-78
2022/05/07 01:43:09;;;;;;;7.17;3.60;;;;;;;;;;4944721;28;20214;-78
2022/05/07 01:45:36;;;;;;;5.33;3.40;;;;;;;;;;4944421;28;20606;-78
2022/05/07 01:48:13;;;;;;;8.03;3.53;;;;;;;;;;4944706;28;20594;-78
2022/05/07 01:50:41;;;;;;;8.73;3.70;;;;;;;;;;4947699;28;20584;-78
2022/05/07 01:53:08;;;;;;;7.03;3.93;;;;;;;;;;4941909;28;20214;-79
2022/05/07 01:55:36;;;;;;;8.33;3.70;;;;;;;;;;4942360;28;20213;-79
2022/05/07 01:58:05;;;;;;;6.73;3.40;;;;;;;;;;4944167;28;20325;-78
2022/05/07 02:00:33;;;;;;;7.97;4.23;;;;;;;;;;4942501;28;20210;-78
2022/05/07 02:03:01;;;;;;;6.57;3.70;;;;;;;;;;4944909;28;20689;-78
2022/05/07 02:05:28;;;;;;;6.20;3.73;;;;;;;;;;4943590;28;20234;-78
2022/05/07 02:07:56;;;;;;;5.73;3.60;;;;;;;;;;4943398;28;20253;-79
2022/05/07 02:10:23;;;;;;;7.60;3.73;;;;;;;;;;4944723;28;21477;-78
2022/05/07 02:12:51;;;;;;;6.03;3.77;;;;;;;;;;4942279;28;20206;-78
2022/05/07 02:15:20;;;;;;;7.47;4.33;;;;;;;;;;4946491;28;20890;-78
2022/05/07 02:17:47;;;;;;;6.67;4.10;;;;;;;;;;4943465;29;20257;-78
2022/05/07 02:20:14;;;;;;;5.07;3.30;;;;;;;;;;4947937;28;20206;-78
2022/05/07 02:22:41;;;;;;;9.30;4.40;;;;;;;;;;4946619;28;20241;-78
2022/05/07 02:25:09;;;;;;;6.70;3.93;;;;;;;;;;4945940;28;20399;-79
2022/05/07 02:27:37;;;;;;;10.33;4.50;;;;;;;;;;4943424;28;20234;-79
2022/05/07 02:33:19;;;;;;;9.60;3.57;;;;;;;;;;4943900;28;20213;-79
2022/05/07 02:35:46;;;;;;;6.70;3.80;;;;;;;;;;4946359;28;20791;-78
2022/05/07 02:38:13;;;;;;;5.87;3.73;;;;;;;;;;4941737;28;20278;-79
2022/05/07 02:43:21;;;;;;;7.80;4.33;;;;;;;;;;4943395;28;20221;-79
2022/05/07 02:45:49;;;;;;;6.63;3.87;;;;;;;;;;4946667;28;20215;-79
2022/05/07 02:48:16;;;;;;;7.57;4.27;;;;;;;;;;4943750;28;20689;-79
2022/05/07 02:50:44;;;;;;;12.63;4.87;;;;;;;;;;4945947;28;20210;-78
2022/05/07 02:53:11;;;;;;;10.90;4.80;;;;;;;;;;4941453;28;20203;-78
2022/05/07 02:55:39;;;;;;;8.47;4.90;;;;;;;;;;4942068;28;20689;-78
2022/05/07 02:58:07;;;;;;;12.67;4.97;;;;;;;;;;4942641;28;20768;-77
2022/05/07 03:00:35;;;;;;;10.80;4.60;;;;;;;;;;4944442;28;21288;-78
2022/05/07 03:03:02;;;;;;;9.10;4.63;;;;;;;;;;4941550;28;20831;-78
2022/05/07 03:05:29;;;;;;;9.93;4.60;;;;;;;;;;4941474;29;20222;-78
2022/05/07 03:07:59;;;;;;;8.33;4.53;;;;;;;;;;4944121;28;20237;-78
2022/05/07 03:10:27;;;;;;;8.17;4.53;;;;;;;;;;4940385;28;20210;-79
2022/05/07 03:12:54;;;;;;;12.00;5.20;;;;;;;;;;4940420;28;20683;-79
2022/05/07 03:15:21;;;;;;;7.93;4.70;;;;;;;;;;4939368;28;20725;-78
2022/05/07 03:17:48;;;;;;;8.03;4.63;;;;;;;;;;4940235;28;20242;-77
2022/05/07 03:20:17;;;;;;;8.17;4.87;;;;;;;;;;4942108;28;20650;-78
2022/05/07 03:22:45;;;;;;;9.63;5.27;;;;;;;;;;4941221;28;20206;-79
2022/05/07 03:25:13;;;;;;;10.17;4.97;;;;;;;;;;4939952;28;20649;-79
2022/05/07 03:27:40;;;;;;;9.50;5.73;;;;;;;;;;4940818;28;20240;-78
2022/05/07 03:30:08;;;;;;;7.33;5.10;;;;;;;;;;4943452;28;20203;-79
2022/05/07 03:32:36;;;;;;;8.73;5.20;;;;;;;;;;4940397;28;20694;-79
2022/05/07 03:35:03;;;;;;;9.13;5.17;;;;;;;;;;4943053;28;20213;-79
2022/05/07 03:37:30;;;;;;;8.07;5.17;;;;;;;;;;4942651;28;20829;-77
2022/05/07 03:39:57;;;;;;;9.83;5.63;;;;;;;;;;4943738;28;20230;-78
2022/05/07 03:42:28;;;;;;;12.07;5.67;;;;;;;;;;4939689;28;20230;-78
2022/05/07 03:44:55;;;;;;;13.90;5.30;;;;;;;;;;4944917;28;20217;-78
2022/05/07 03:47:22;;;;;;;8.60;5.03;;;;;;;;;;4939817;28;20233;-77
2022/05/07 03:49:49;;;;;;;12.43;5.57;;;;;;;;;;4942859;28;20205;-78
2022/05/07 03:55:01;;;;;;;13.67;6.17;;;;;;;;;;4943526;28;20660;-79
2022/05/07 03:57:30;;;;;;;12.07;6.03;;;;;;;;;;4938022;28;20318;-79
2022/05/07 03:59:57;;;;;;;10.77;5.60;;;;;;;;;;4941786;28;20222;-78
2022/05/07 04:02:25;;;;;;;9.50;5.53;;;;;;;;;;4941013;28;20218;-79
2022/05/07 04:04:52;;;;;;;12.60;6.13;;;;;;;;;;4942743;29;20282;-80
2022/05/07 04:07:19;;;;;;;13.00;5.77;;;;;;;;;;4939844;28;20253;-79
2022/05/07 04:09:46;;;;;;;8.20;5.47;;;;;;;;;;4942364;28;20218;-79
2022/05/07 04:12:13;;;;;;;12.10;5.63;;;;;;;;;;4942005;28;20290;-78
2022/05/07 04:14:42;;;;;;;13.07;5.33;;;;;;;;;;4940242;28;20219;-78
2022/05/07 04:17:09;;;;;;;9.57;5.73;;;;;;;;;;4941015;28;20241;-78
2022/05/07 04:19:37;;;;;;;8.50;5.30;;;;;;;;;;4941099;28;20237;-78
2022/05/07 04:22:04;;;;;;;9.67;5.57;;;;;;;;;;4943222;28;20206;-78
2022/05/07 04:24:33;;;;;;;7.67;5.33;;;;;;;;;;4941844;28;20562;-78
2022/05/07 04:27:00;;;;;;;9.00;5.37;;;;;;;;;;4943749;28;20226;-78
2022/05/07 04:29:27;;;;;;;7.47;4.80;;;;;;;;;;4943365;28;20231;-79
2022/05/07 04:31:56;;;;;;;9.40;5.13;;;;;;;;;;4943856;28;20216;-78
2022/05/07 04:34:24;;;;;;;9.60;5.33;;;;;;;;;;4943955;28;20234;-76
2022/05/07 04:36:51;;;;;;;6.53;4.60;;;;;;;;;;4941341;28;20756;-78
2022/05/07 04:39:18;;;;;;;7.87;5.07;;;;;;;;;;4945430;28;20218;-78
2022/05/07 04:41:45;;;;;;;6.13;3.97;;;;;;;;;;4941971;28;20207;-77
2022/05/07 04:44:13;;;;;;;7.20;4.60;;;;;;;;;;4944076;28;20206;-78
2022/05/07 04:46:40;;;;;;;9.27;4.50;;;;;;;;;;4946094;28;20278;-79
2022/05/07 04:49:09;;;;;;;11.73;4.73;;;;;;;;;;4946220;28;20209;-77
2022/05/07 04:51:36;;;;;;;7.33;4.43;;;;;;;;;;4941853;28;20290;-78
2022/05/07 04:54:03;;;;;;;6.63;3.73;;;;;;;;;;4944989;28;20294;-78
2022/05/07 04:56:30;;;;;;;6.03;3.83;;;;;;;;;;4944013;29;20307;-78
2022/05/07 04:58:57;;;;;;;9.33;4.40;;;;;;;;;;4947435;28;20218;-77
2022/05/07 05:01:25;;;;;;;9.33;4.40;;;;;;;;;;4942929;28;20721;-78
2022/05/07 05:03:52;;;;;;;6.30;4.07;;;;;;;;;;4945206;28;20199;-79
2022/05/07 05:06:20;;;;;;;7.20;4.00;;;;;;;;;;4944435;28;20247;-78
2022/05/07 05:08:47;;;;;;;8.03;4.10;;;;;;;;;;4945195;28;20666;-79
2022/05/07 05:11:14;;;;;;;6.63;4.30;;;;;;;;;;4947110;28;20760;-79
2022/05/07 05:13:42;;;;;;;9.37;4.00;;;;;;;;;;4948666;28;20206;-79
2022/05/07 05:16:09;;;;;;;7.80;4.07;;;;;;;;;;4947439;29;20210;-79
2022/05/07 05:18:36;;;;;;;5.77;4.10;;;;;;;;;;4946638;28;20222;-78
2022/05/07 05:21:03;;;;;;;7.53;4.17;;;;;;;;;;4947886;28;20290;-78
2022/05/07 05:23:32;;;;;;;7.83;3.80;;;;;;;;;;4947471;28;20211;-78
2022/05/07 05:25:59;;;;;;;13.60;4.60;;;;;;;;;;4942067;29;20305;-78
2022/05/07 05:28:26;;;;;;;7.37;4.30;;;;;;;;;;4945193;28;20205;-78
2022/05/07 05:30:53;;;;;;;7.60;4.40;;;;;;;;;;4943719;28;20232;-78
2022/05/07 05:33:20;;;;;;;12.37;4.83;;;;;;;;;;4946528;28;20323;-78
2022/05/07 05:35:47;;;;;;;10.07;4.50;;;;;;;;;;4943582;28;20211;-77
2022/05/07 05:38:15;;;;;;;12.90;4.60;;;;;;;;;;4943080;28;20222;-78
2022/05/07 05:40:44;;;;;;;12.37;4.60;;;;;;;;;;4944610;28;20603;-78
2022/05/07 05:43:11;;;;;;;9.57;4.57;;;;;;;;;;4943670;28;20652;-78
2022/05/07 05:45:38;;;;;;;9.97;4.20;;;;;;;;;;4943760;28;20217;-78
2022/05/07 05:48:06;;;;;;;8.80;4.50;;;;;;;;;;4945536;28;20237;-78
2022/05/07 05:50:34;;;;;;;9.30;4.03;;;;;;;;;;4945703;28;20293;-79
2022/05/07 05:53:01;;;;;;;8.87;4.33;;;;;;;;;;4943438;28;20293;-79
2022/05/07 05:55:28;;;;;;;9.00;4.40;;;;;;;;;;4941850;28;20222;-80
2022/05/07 05:57:57;;;;;;;6.97;4.17;;;;;;;;;;4944531;28;20573;-79
2022/05/07 06:00:24;;;;;;;6.37;3.60;;;;;;;;;;4943912;28;20234;-78
2022/05/07 06:02:51;;;;;;;6.77;4.20;;;;;;;;;;4944390;28;20362;-78
2022/05/07 06:05:19;;;;;;;7.27;4.33;;;;;;;;;;4942407;28;20196;-79
2022/05/07 06:07:46;;;;;;;5.87;4.10;;;;;;;;;;4943619;28;20244;-79
2022/05/07 06:10:13;;;;;;;5.60;3.90;;;;;;;;;;4942800;28;20237;-79
2022/05/07 06:12:41;;;;;;;9.40;4.37;;;;;;;;;;4945664;28;20582;-79
2022/05/07 06:15:11;;;;;;;12.20;4.30;;;;;;;;;;4945102;28;20261;-79
2022/05/07 06:17:38;;;;;;;7.97;3.90;;;;;;;;;;4945523;28;20232;-79
2022/05/07 06:20:06;;;;;;;6.60;3.97;;;;;;;;;;4941423;28;20255;-79
2022/05/07 06:22:33;;;;;;;6.87;4.43;;;;;;;;;;4945340;28;20743;-79
2022/05/07 06:27:45;;;;;;;9.17;4.73;;;;;;;;;;4944833;28;20232;-79
2022/05/07 06:33:18;;;;;;;7.60;4.70;;;;;;;;;;4970967;23;20240;-78
2022/05/07 06:35:46;;;;;;;6.33;4.73;;;;;;;;;;4962699;28;20207;-77
2022/05/07 06:38:13;;;;;;;6.97;4.57;;;;;;;;;;4963186;28;20241;-77
2022/05/07 06:40:40;;;;;;;8.50;4.27;;;;;;;;;;4961509;28;20233;-78
2022/05/07 06:43:08;;;;;;;4.97;3.87;;;;;;;;;;4957497;28;20329;-76
2022/05/07 06:45:35;;;;;;;6.67;4.20;;;;;;;;;;4962390;28;20298;-75
2022/05/07 06:48:08;;;;;;;8.30;3.93;;;;;;;;;;4962175;28;20766;-77
2022/05/07 06:50:36;;;;;;;10.30;3.77;;;;;;;;;;4964381;28;20212;-77
2022/05/07 06:53:04;;;;;;;6.40;4.13;;;;;;;;;;4964835;28;20224;-77
2022/05/07 06:55:33;;;;;;;6.27;4.07;;;;;;;;;;4961704;28;20217;-78
2022/05/07 06:58:00;;;;;;;6.13;3.77;;;;;;;;;;4961416;28;20214;-79
2022/05/07 07:00:27;;;;;;;5.50;3.93;;;;;;;;;;4969153;28;20224;-78
2022/05/07 07:02:54;;;;;;;7.00;3.90;;;;;;;;;;4966173;28;20259;-77
2022/05/07 07:05:22;;;;;;;7.20;3.57;;;;;;;;;;4964769;28;20214;-76
2022/05/07 07:07:51;;;;;;;8.17;3.90;;;;;;;;;;4968248;28;20237;-77
2022/05/07 07:10:18;;;;;;;6.73;3.70;;;;;;;;;;4965536;28;20206;-78
2022/05/07 07:12:46;;;;;;;5.53;3.47;;;;;;;;;;4967499;28;20228;-78
2022/05/07 07:15:13;;;;;;;7.77;3.40;;;;;;;;;;4968672;28;20213;-76
2022/05/07 07:17:40;;;;;;;6.33;3.40;;;;;;;;;;4967118;28;20205;-77
2022/05/07 07:20:08;;;;;;;7.10;3.10;;;;;;;;;;4966189;28;20226;-76
2022/05/07 07:22:36;;;;;;;6.23;3.30;;;;;;;;;;4968508;28;20326;-76
2022/05/07 07:25:04;;;;;;;7.13;3.67;;;;;;;;;;4968261;28;20208;-75
2022/05/07 07:27:31;;;;;;;9.13;4.03;;;;;;;;;;4966447;28;20300;-78
2022/05/07 07:29:59;;;;;;;9.87;4.03;;;;;;;;;;4967715;28;20230;-77
2022/05/07 07:32:26;;;;;;;5.83;3.57;;;;;;;;;;4964452;28;20240;-76
2022/05/07 07:34:54;;;;;;;6.53;4.10;;;;;;;;;;4966631;28;20688;-78
2022/05/07 07:37:25;;;;;;;5.80;3.40;;;;;;;;;;4965309;28;20212;-76
2022/05/07 07:39:52;;;;;;;4.87;3.60;;;;;;;;;;4967467;28;20222;-77
2022/05/07 07:42:23;;;;;;;6.10;3.80;;;;;;;;;;4966475;28;20317;-79
2022/05/07 07:47:56;;;;;;;6.37;4.20;;;;;;;;;;4969800;28;20300;-77
2022/05/07 07:50:22;;;;;;;7.33;3.70;;;;;;;;;;4965389;28;20241;-76
2022/05/07 07:52:53;;;;;;;9.00;3.67;;;;;;;;;;4963530;28;20238;-78
2022/05/07 07:55:20;;;;;;;8.13;3.77;;;;;;;;;;4968408;28;20212;-77
2022/05/07 07:57:49;;;;;;;8.33;4.40;;;;;;;;;;4965219;28;20210;-79
2022/05/07 08:00:16;;;;;;;6.93;4.17;;;;;;;;;;4968994;28;20229;-77
2022/05/07 08:02:50;;;;;;;7.80;4.00;;;;;;;;;;4966935;28;20334;-79
2022/05/07 08:05:17;;;;;;;8.83;3.20;;;;;;;;;;4968247;28;20209;-78
2022/05/07 08:13:16;;;;;;;5.93;2.30;;;;;;;;;;4965485;28;20224;-79
2022/05/07 08:15:43;;;;;;;3.50;2.17;;;;;;;;;;4968129;28;20212;-79
2022/05/07 08:18:10;;;;;;;6.63;2.20;;;;;;;;;;4971048;28;20208;-80
2022/05/07 08:20:37;;;;;;;7.20;2.30;;;;;;;;;;4969107;28;20204;-79
2022/05/07 08:23:04;;;;;;;4.73;1.80;;;;;;;;;;4970023;28;20233;-79
2022/05/07 08:25:32;;;;;;;1.90;1.40;;;;;;;;;;4965604;28;20303;-78
2022/05/07 08:27:59;;;;;;;4.47;1.40;;;;;;;;;;4964769;28;20547;-79
2022/05/07 08:30:27;;;;;;;2.77;1.20;;;;;;;;;;4971688;28;20228;-78
2022/05/07 08:32:54;;;;;;;6.30;1.80;;;;;;;;;;4968645;28;20296;-79
2022/05/07 08:35:22;;;;;;;2.20;1.10;;;;;;;;;;4969013;28;20221;-77
2022/05/07 08:37:50;;;;;;;4.63;1.50;;;;;;;;;;4970876;28;20204;-79
2022/05/07 08:40:18;;;;;;;4.97;1.30;;;;;;;;;;4967846;28;20618;-78
2022/05/07 08:42:45;;;;;;;3.90;1.50;;;;;;;;;;4965739;28;20615;-79
2022/05/07 08:45:13;;;;;;;3.67;1.30;;;;;;;;;;4968995;28;20224;-77
2022/05/07 08:47:41;;;;;;;3.80;1.13;;;;;;;;;;4960709;28;20620;-77
2022/05/07 08:50:09;;;;;;;4.13;1.10;;;;;;;;;;4965654;28;20588;-78
2022/05/07 08:52:39;;;;;;;3.30;1.50;;;;;;;;;;4970721;28;20353;-77
2022/05/07 08:55:07;;;;;;;5.67;1.90;;;;;;;;;;4968656;28;20572;-78
2022/05/07 08:57:35;;;;;;;3.57;1.83;;;;;;;;;;4966298;28;20731;-78
2022/05/07 09:00:02;;;;;;;2.90;1.90;;;;;;;;;;4971135;28;20213;-78
2022/05/07 09:02:29;;;;;;;4.20;1.60;;;;;;;;;;4972699;28;20236;-78
2022/05/07 09:04:59;;;;;;;8.30;1.90;;;;;;;;;;4969019;28;20213;-77
2022/05/07 09:07:26;;;;;;;3.63;1.60;;;;;;;;;;4963950;28;20218;-78
2022/05/07 09:09:53;;;;;;;4.07;1.50;;;;;;;;;;4966956;28;20668;-78
2022/05/07 09:12:24;;;;;;;6.70;1.90;;;;;;;;;;4970619;28;20320;-75
2022/05/07 09:14:57;;;;;;;5.57;1.90;;;;;;;;;;4968842;28;20205;-76
2022/05/07 09:17:25;;;;;;;4.43;1.73;;;;;;;;;;4969189;28;20567;-76
2022/05/07 09:19:52;;;;;;;3.60;1.60;;;;;;;;;;4966502;28;20209;-79
2022/05/07 09:22:23;;;;;;;2.87;1.40;;;;;;;;;;4967707;28;20242;-77
2022/05/07 09:25:02;;;;;;;5.30;1.87;;;;;;;;;;4965792;28;20655;-77
2022/05/07 09:27:30;;;;;;;3.37;2.03;;;;;;;;;;4965003;28;20906;-79
2022/05/07 09:30:02;;;;;;;4.97;1.73;;;;;;;;;;4966605;28;20587;-79
2022/05/07 09:32:38;;;;;;;3.83;1.70;;;;;;;;;;4967057;28;20369;-78
2022/05/07 09:38:03;;;;;;;3.97;2.40;;;;;;;;;;4969506;28;20209;-77
2022/05/07 09:40:30;;;;;;;6.83;2.63;;;;;;;;;;4970006;28;20197;-78
2022/05/07 09:42:58;;;;;;;4.67;3.00;;;;;;;;;;4966972;28;20235;-78
2022/05/07 09:45:27;;;;;;;5.63;2.47;;;;;;;;;;4969541;28;21158;-78
2022/05/07 09:47:54;;;;;;;10.87;2.40;;;;;;;;;;4965095;28;20212;-77
2022/05/07 09:50:23;;;;;;;4.03;1.93;;;;;;;;;;4968419;28;20779;-79
2022/05/07 09:58:23;;;;;;;5.10;2.80;;;;;;;;;;4966735;28;20219;-77
2022/05/07 10:01:06;;;;;;;6.03;2.90;;;;;;;;;;4965612;28;20204;-78
2022/05/07 10:03:39;;;;;;;8.77;2.77;;;;;;;;;;4960863;28;20271;-79
2022/05/07 10:06:16;;;;;;;5.80;2.60;;;;;;;;;;4961722;28;20283;-78
2022/05/07 10:08:49;;;;;;;4.40;2.17;;;;;;;;;;4968715;28;20632;-78
2022/05/07 10:11:18;;;;;;;5.77;2.10;;;;;;;;;;4965629;28;20231;-76
2022/05/07 10:13:55;;;;;;;6.20;2.20;;;;;;;;;;4963291;28;20224;-78
2022/05/07 10:16:23;;;;;;;5.37;2.30;;;;;;;;;;4970967;28;20299;-78
2022/05/07 10:18:53;;;;;;;5.40;2.10;;;;;;;;;;4959299;28;20217;-78
2022/05/07 10:21:22;;;;;;;5.07;2.27;;;;;;;;;;4964427;28;20198;-78
2022/05/07 10:23:50;;;;;;;10.53;5.80;;;;;;;;;;4963250;28;20213;-75
2022/05/07 10:26:22;;;;;;;4.07;2.47;;;;;;;;;;4963270;28;20593;-77
2022/05/07 10:28:50;;;;;;;10.83;3.80;;;;;;;;;;4966616;28;20216;-78
2022/05/07 10:31:19;;;;;;;4.60;2.83;;;;;;;;;;4965961;28;20723;-78
2022/05/07 10:33:46;;;;;;;77.50;35.03;;;;;;;;;;4963269;28;20211;-77
2022/05/07 10:36:15;;;;;;;12.67;4.67;;;;;;;;;;4969035;28;20221;-77
2022/05/07 10:38:45;;;;;;;5.80;2.90;;;;;;;;;;4969484;28;20204;-77
2022/05/07 10:41:26;;;;;;;18.77;11.33;;;;;;;;;;4968108;28;20590;-78
2022/05/07 10:44:07;;;;;;;5.50;2.97;;;;;;;;;;5087230;27;21105;-77
2022/05/07 10:46:43;;;;;;;4.97;2.27;;;;;;;;;;5077673;28;20672;-78
2022/05/07 10:49:10;;;;;;;4.23;2.30;;;;;;;;;;5069687;28;20659;-76
2022/05/07 10:51:38;;;;;;;5.90;3.00;;;;;;;;;;5074025;28;20223;-76
2022/05/07 10:54:18;;;;;;;7.77;3.40;;;;;;;;;;5072833;28;20796;-78
2022/05/07 10:56:47;;;;;;;6.50;3.17;;;;;;;;;;5077462;28;20250;-77
2022/05/07 10:59:15;;;;;;;4.80;3.27;;;;;;;;;;5074123;28;20208;-77
2022/05/07 11:01:43;;;;;;;6.07;2.80;;;;;;;;;;5076621;28;20701;-78
2022/05/07 11:04:12;;;;;;;5.00;1.90;;;;;;;;;;5074929;28;20975;-76
2022/05/07 11:06:47;;;;;;;7.20;2.63;;;;;;;;;;5069780;28;20212;-79
2022/05/07 11:09:17;;;;;;;8.57;2.40;;;;;;;;;;5078475;28;20527;-77
2022/05/07 11:11:45;;;;;;;7.13;2.90;;;;;;;;;;5081811;28;20276;-78
2022/05/07 11:14:20;;;;;;;6.60;2.30;;;;;;;;;;5080603;28;20210;-78
2022/05/07 11:16:47;;;;;;;6.37;2.30;;;;;;;;;;5083533;28;20206;-78
2022/05/07 11:19:23;;;;;;;10.17;2.93;;;;;;;;;;5085823;28;20660;-77
2022/05/07 11:21:52;;;;;;;5.70;2.57;;;;;;;;;;5075834;28;20229;-78
2022/05/07 11:24:19;;;;;;;4.07;2.40;;;;;;;;;;5080926;28;20204;-78
2022/05/07 11:26:52;;;;;;;7.80;2.70;;;;;;;;;;5078915;28;20214;-77
2022/05/07 11:29:21;;;;;;;5.33;3.00;;;;;;;;;;5083171;28;20195;-79
2022/05/07 11:31:55;;;;;;;6.23;2.63;;;;;;;;;;5074866;28;20314;-79
2022/05/07 11:34:29;;;;;;;3.83;2.90;;;;;;;;;;5077659;28;20298;-79
2022/05/07 11:36:56;;;;;;;9.47;2.13;;;;;;;;;;5079869;28;20203;-76
2022/05/07 11:39:24;;;;;;;6.77;2.53;;;;;;;;;;5069287;28;20271;-76
2022/05/07 11:41:55;;;;;;;4.90;2.10;;;;;;;;;;5081065;28;20230;-79
2022/05/07 11:47:22;;;;;;;9.50;4.03;;;;;;;;;;5083320;28;20195;-78
2022/05/07 11:50:01;;;;;;;4.67;2.30;;;;;;;;;;5081987;28;20214;-77
2022/05/07 11:52:29;;;;;;;2.80;2.00;;;;;;;;;;5081146;28;20216;-78
2022/05/07 11:54:56;;;;;;;10.20;3.00;;;;;;;;;;5070287;28;20239;-78
2022/05/07 11:57:29;;;;;;;4.40;2.67;;;;;;;;;;5068507;28;20587;-78
2022/05/07 11:59:58;;;;;;;64.60;30.37;;;;;;;;;;5067513;28;20207;-78
2022/05/07 12:02:28;;;;;;;85.03;44.63;;;;;;;;;;5058435;28;20223;-77
2022/05/07 12:04:58;;;;;;;9.47;5.53;;;;;;;;;;5061661;28;20214;-77
2022/05/07 12:07:25;;;;;;;9.97;2.87;;;;;;;;;;5066145;28;20211;-77
2022/05/07 12:09:52;;;;;;;10.10;3.07;;;;;;;;;;5060392;28;20321;-77
2022/05/07 12:12:19;;;;;;;9.30;3.20;;;;;;;;;;5060357;28;20234;-77
2022/05/07 12:14:46;;;;;;;45.97;26.80;;;;;;;;;;5066214;28;20199;-77
2022/05/07 12:20:00;;;;;;;59.13;31.27;;;;;;;;;;5068912;28;20236;-79
2022/05/07 12:30:58;;;;;;;6.57;2.93;;;;;;;;;;5064379;28;20233;-76
2022/05/07 12:33:27;;;;;;;4.00;2.23;;;;;;;;;;5062310;28;20213;-77
2022/05/07 12:35:54;;;;;;;7.47;2.50;;;;;;;;;;5065195;28;20243;-77
2022/05/07 12:38:21;;;;;;;6.70;2.37;;;;;;;;;;5059706;28;20230;-77
2022/05/07 12:40:48;;;;;;;11.47;4.03;;;;;;;;;;5063371;28;20233;-75
2022/05/07 12:43:19;;;;;;;6.90;2.40;;;;;;;;;;5061146;28;20313;-76
2022/05/07 12:45:49;;;;;;;4.53;2.10;;;;;;;;;;5063267;28;20212;-77
2022/05/07 12:48:16;;;;;;;6.03;2.47;;;;;;;;;;5064108;28;20203;-77
2022/05/07 12:50:46;;;;;;;13.00;2.97;;;;;;;;;;5066654;28;20599;-77
2022/05/07 12:53:14;;;;;;;7.97;3.27;;;;;;;;;;5066754;28;20240;-76
2022/05/07 12:55:48;;;;;;;9.10;3.47;;;;;;;;;;5070462;28;20214;-77
2022/05/07 12:58:15;;;;;;;6.80;2.67;;;;;;;;;;5067860;28;20202;-76
2022/05/07 13:00:42;;;;;;;8.03;3.27;;;;;;;;;;5064917;28;20210;-77
2022/05/07 13:03:10;;;;;;;5.10;2.67;;;;;;;;;;5059619;28;20223;-77
2022/05/07 13:05:38;;;;;;;3.77;2.37;;;;;;;;;;5056986;28;20336;-77
2022/05/07 13:08:07;;;;;;;8.97;2.80;;;;;;;;;;5056467;28;20211;-77
2022/05/07 13:10:36;;;;;;;3.77;2.53;;;;;;;;;;5057788;28;20220;-77
2022/05/07 13:13:04;;;;;;;5.70;2.80;;;;;;;;;;5062121;28;20310;-77
2022/05/07 13:15:32;;;;;;;5.03;2.63;;;;;;;;;;5060574;28;20684;-77
2022/05/07 13:17:59;;;;;;;4.50;2.77;;;;;;;;;;5062863;28;20198;-76
2022/05/07 13:20:26;;;;;;;6.03;2.10;;;;;;;;;;5067639;28;20271;-77
2022/05/07 13:22:54;;;;;;;8.37;2.50;;;;;;;;;;5078776;28;20632;-77
2022/05/07 13:25:23;;;;;;;5.37;2.87;;;;;;;;;;5076457;28;20227;-76
2022/05/07 13:27:50;;;;;;;4.00;3.00;;;;;;;;;;5073333;28;20199;-77
2022/05/07 13:30:18;;;;;;;8.80;3.53;;;;;;;;;;5065670;28;20587;-77
2022/05/07 13:35:41;;;;;;;19.83;7.47;;;;;;;;;;5063236;28;20297;-76
2022/05/07 13:38:13;;;;;;;11.07;7.33;;;;;;;;;;5068590;28;20218;-77
2022/05/07 13:40:41;;;;;;;14.83;7.20;;;;;;;;;;5067650;28;20272;-77
2022/05/07 13:43:09;;;;;;;21.13;7.60;;;;;;;;;;5067573;28;20261;-77
2022/05/07 13:45:37;;;;;;;12.33;7.63;;;;;;;;;;5063866;28;20498;-76
2022/05/07 13:48:06;;;;;;;11.43;7.00;;;;;;;;;;5064857;28;20257;-76
2022/05/07 13:50:33;;;;;;;12.93;7.97;;;;;;;;;;5064830;28;20206;-76
2022/05/07 13:53:00;;;;;;;19.63;9.13;;;;;;;;;;5066171;28;20225;-76
2022/05/07 13:55:27;;;;;;;15.73;9.10;;;;;;;;;;5065893;28;20209;-76
2022/05/07 13:57:56;;;;;;;27.10;10.53;;;;;;;;;;5064559;28;20664;-77
2022/05/07 14:00:23;;;;;;;27.40;11.57;;;;;;;;;;5063331;28;20742;-76
2022/05/07 14:02:50;;;;;;;21.10;10.13;;;;;;;;;;5064740;28;20237;-76
2022/05/07 14:05:18;;;;;;;20.70;10.20;;;;;;;;;;5064486;28;20206;-76
2022/05/07 14:07:45;;;;;;;15.70;9.83;;;;;;;;;;5066015;28;20214;-76
2022/05/07 14:10:12;;;;;;;23.33;9.93;;;;;;;;;;5065005;28;20202;-76
2022/05/07 14:12:43;;;;;;;11.97;7.60;;;;;;;;;;5063758;28;20696;-76
2022/05/07 14:15:12;;;;;;;14.70;6.97;;;;;;;;;;5062558;28;20212;-76
2022/05/07 14:17:40;;;;;;;15.90;6.90;;;;;;;;;;5064942;28;20214;-76
2022/05/07 14:20:08;;;;;;;8.17;5.40;;;;;;;;;;5064156;28;20293;-77
2022/05/07 14:22:35;;;;;;;12.20;6.60;;;;;;;;;;5064575;28;20226;-77
2022/05/07 14:25:04;;;;;;;13.60;6.40;;;;;;;;;;5064936;28;20226;-77
2022/05/07 14:27:32;;;;;;;9.97;5.20;;;;;;;;;;5066015;28;20210;-76
2022/05/07 14:32:43;;;;;;;8.10;4.43;;;;;;;;;;5069574;28;20279;-76
2022/05/07 14:35:10;;;;;;;7.90;5.40;;;;;;;;;;5068162;28;20238;-76
2022/05/07 14:37:37;;;;;;;9.87;5.70;;;;;;;;;;5068328;28;20194;-76
2022/05/07 14:42:46;;;;;;;11.43;6.87;;;;;;;;;;5068542;28;20283;-76
2022/05/07 14:45:14;;;;;;;10.90;6.70;;;;;;;;;;5066666;28;20574;-76
2022/05/07 14:47:42;;;;;;;10.00;6.60;;;;;;;;;;5071281;28;20411;-76
2022/05/07 14:50:10;;;;;;;13.43;5.70;;;;;;;;;;5064929;28;20198;-75
2022/05/07 14:52:37;;;;;;;15.63;5.80;;;;;;;;;;5055042;28;21119;-76
2022/05/07 14:55:05;;;;;;;18.57;6.47;;;;;;;;;;5065645;28;20203;-77
2022/05/07 14:57:32;;;;;;;13.23;6.57;;;;;;;;;;5071525;28;20289;-77
2022/05/07 15:00:00;;;;;;;19.83;6.60;;;;;;;;;;5061398;28;20583;-76
2022/05/07 15:02:27;;;;;;;11.80;6.30;;;;;;;;;;5065387;28;20220;-76
2022/05/07 15:04:55;;;;;;;13.20;6.37;;;;;;;;;;5061806;28;20283;-76
2022/05/07 15:07:22;;;;;;;15.13;6.17;;;;;;;;;;5061391;28;20210;-76
2022/05/07 15:12:35;;;;;;;10.83;5.90;;;;;;;;;;5058823;28;20269;-76
2022/05/07 15:15:02;;;;;;;10.17;5.60;;;;;;;;;;5061341;28;20201;-76
2022/05/07 15:17:42;;;;;;;9.50;6.13;;;;;;;;;;5062788;28;20206;-76
2022/05/07 15:20:14;;;;;;;8.40;5.37;;;;;;;;;;5066928;28;20224;-77
2022/05/07 15:22:41;;;;;;;8.10;5.43;;;;;;;;;;5067386;28;20222;-76
2022/05/07 15:25:09;;;;;;;7.13;5.40;;;;;;;;;;5058230;28;20783;-75
2022/05/07 15:27:36;;;;;;;7.43;5.07;;;;;;;;;;5059413;28;20547;-75
2022/05/07 15:30:03;;;;;;;11.37;5.30;;;;;;;;;;5069900;28;20210;-76
2022/05/07 15:38:01;;;;;;;8.63;5.80;;;;;;;;;;5071888;28;20229;-76
2022/05/07 15:40:28;;;;;;;10.93;5.50;;;;;;;;;;5070688;28;20929;-76
2022/05/07 15:42:56;;;;;;;7.93;4.97;;;;;;;;;;5071822;28;20245;-76
2022/05/07 15:45:24;;;;;;;6.87;4.90;;;;;;;;;;5069203;28;20577;-76
2022/05/07 15:47:52;;;;;;;8.83;4.90;;;;;;;;;;5067068;28;20203;-76
2022/05/07 15:50:21;;;;;;;12.20;5.50;;;;;;;;;;5068854;28;20206;-76
2022/05/07 15:52:48;;;;;;;15.50;5.97;;;;;;;;;;5061614;28;20226;-76
2022/05/07 15:55:15;;;;;;;9.30;5.77;;;;;;;;;;5070265;28;20672;-76